createdAt,value
2023-03-02T00:04:33.168Z,-2.64
2023-03-02T00:09:36.951Z,-2.49
2023-03-02T00:14:41.206Z,-2.67
2023-03-02T00:19:44.848Z,-2.60
2023-03-02T00:24:47.803Z,-2.63
2023-03-02T00:29:52.554Z,-3.02
2023-03-02T00:34:55.447Z,-2.70
2023-03-02T00:39:58.339Z,-2.68
2023-03-02T00:45:02.740Z,-2.71
2023-03-02T00:50:07.683Z,-2.76
2023-03-02T00:55:11.147Z,-2.80
2023-03-02T01:00:16.670Z,-3.06
2023-03-02T01:05:22.999Z,-3.04
2023-03-02T01:10:26.003Z,-3.00
2023-03-02T01:15:30.534Z,-3.13
2023-03-02T01:20:34.191Z,-3.08
2023-03-02T01:25:39.025Z,-3.06
2023-03-02T01:30:43.430Z,-3.02
2023-03-02T01:35:47.377Z,-3.28
2023-03-02T01:40:50.388Z,-3.24
2023-03-02T01:45:57.377Z,-3.25
2023-03-02T01:51:15.903Z,-3.25
2023-03-02T01:56:22.990Z,-3.50
2023-03-02T02:01:28.119Z,-3.47
2023-03-02T02:06:35.992Z,-3.41
2023-03-02T02:11:39.129Z,-3.41
2023-03-02T02:16:43.549Z,-3.48
2023-03-02T02:21:46.719Z,-3.47
2023-03-02T02:26:53.693Z,-3.45
2023-03-02T02:32:02.353Z,-3.54
2023-03-02T02:37:09.097Z,-3.55
2023-03-02T02:42:17.350Z,-3.84
2023-03-02T02:47:22.764Z,-3.55
2023-03-02T02:52:29.179Z,-3.58
2023-03-02T02:57:33.599Z,-3.52
2023-03-02T03:02:45.493Z,-3.68
2023-03-02T03:07:48.549Z,-3.66
2023-03-02T03:12:54.162Z,-3.79
2023-03-02T03:17:58.551Z,-3.75
2023-03-02T03:23:03.226Z,-3.80
2023-03-02T03:28:09.012Z,-3.71
2023-03-02T03:33:12.245Z,-3.76
2023-03-02T03:38:16.136Z,-3.76
2023-03-02T03:43:22.820Z,-4.05
2023-03-02T03:48:29.257Z,-4.12
2023-03-02T03:53:32.550Z,-4.01
2023-03-02T03:58:37.799Z,-4.00
2023-03-02T04:03:42.267Z,-4.06
2023-03-02T04:08:45.623Z,-4.04
2023-03-02T04:13:50.208Z,-4.14
2023-03-02T04:18:53.261Z,-4.10
2023-03-02T04:23:56.284Z,-4.15
2023-03-02T04:29:01.549Z,-4.16
2023-03-02T04:34:05.175Z,-4.07
2023-03-02T04:39:11.446Z,-4.12
2023-03-02T04:44:17.157Z,-4.20
2023-03-02T04:49:21.041Z,-4.19
2023-03-02T04:54:27.001Z,-4.24
2023-03-02T04:59:31.279Z,-4.35
2023-03-02T05:04:34.754Z,-4.31
2023-03-02T05:09:37.704Z,-4.28
2023-03-02T05:14:43.415Z,-4.34
2023-03-02T05:19:47.175Z,-4.48
2023-03-02T05:24:50.046Z,-4.45
2023-03-02T05:29:54.386Z,-4.49
2023-03-02T05:34:57.278Z,-4.42
2023-03-02T05:40:00.295Z,-4.41
2023-03-02T05:45:04.905Z,-4.47
2023-03-02T05:50:08.941Z,-4.42
2023-03-02T05:55:12.297Z,-4.55
2023-03-02T06:00:18.158Z,-4.32
2023-03-02T06:05:22.742Z,-4.42
2023-03-02T06:10:26.431Z,-4.48
2023-03-02T06:15:31.258Z,-4.25
2023-03-02T06:20:34.235Z,-4.35
2023-03-02T06:25:41.331Z,-4.14
2023-03-02T06:30:45.782Z,-3.90
2023-03-02T06:35:50.453Z,-3.15
2023-03-02T06:40:53.502Z,-2.79
2023-03-02T06:45:58.190Z,-2.66
2023-03-02T06:51:01.209Z,-2.59
2023-03-02T06:56:04.190Z,-2.67
2023-03-02T07:01:08.940Z,-2.05
2023-03-02T07:06:13.538Z,-1.55
2023-03-02T07:11:16.511Z,-1.52
2023-03-02T07:16:20.775Z,-2.40
2023-03-02T07:21:23.840Z,-1.81
2023-03-02T07:26:26.769Z,-1.13
2023-03-02T07:31:32.481Z,-0.58
2023-03-02T07:36:35.569Z,-0.39
2023-03-02T07:41:38.472Z,-0.12
2023-03-02T07:46:42.740Z,-0.27
2023-03-02T07:51:45.666Z,-0.58
2023-03-02T07:56:48.639Z,-0.05
2023-03-02T08:01:53.009Z,0.72
2023-03-02T08:06:56.002Z,1.42
2023-03-02T08:11:59.043Z,1.60
2023-03-02T08:17:03.389Z,1.63
2023-03-02T08:22:06.330Z,1.55
2023-03-02T08:27:09.915Z,2.00
2023-03-02T08:32:14.362Z,2.14
2023-03-02T08:37:17.347Z,2.22
2023-03-02T08:42:20.256Z,2.50
2023-03-02T08:47:24.527Z,3.00
2023-03-02T08:52:27.479Z,3.33
2023-03-02T08:57:30.392Z,3.34
2023-03-02T09:02:34.642Z,3.99
2023-03-02T09:07:37.547Z,4.25
2023-03-02T09:12:40.483Z,2.87
2023-03-02T09:17:44.826Z,3.09
2023-03-02T09:22:50.841Z,3.26
2023-03-02T09:27:53.773Z,2.91
2023-03-02T09:32:58.322Z,4.02
2023-03-02T09:38:01.389Z,4.32
2023-03-02T09:43:26.767Z,3.41
2023-03-02T09:48:39.606Z,4.29
2023-03-02T09:53:48.607Z,4.30
2023-03-02T09:58:57.102Z,4.25
2023-03-02T10:04:10.560Z,4.54
2023-03-02T10:09:13.643Z,5.07
2023-03-02T10:14:21.735Z,5.05
2023-03-02T10:19:32.408Z,5.15
2023-03-02T10:24:41.003Z,5.74
2023-03-02T10:29:55.490Z,5.29
2023-03-02T10:35:02.765Z,5.80
2023-03-02T10:40:06.358Z,5.13
2023-03-02T10:45:25.021Z,5.17
2023-03-02T10:50:30.621Z,5.97
2023-03-02T10:55:34.923Z,6.16
2023-03-02T11:00:37.934Z,6.90
2023-03-02T11:05:44.425Z,6.61
2023-03-02T11:10:56.797Z,6.90
2023-03-02T11:16:05.199Z,6.26
2023-03-02T11:21:12.678Z,6.68
2023-03-02T11:26:21.909Z,6.59
2023-03-02T11:31:31.307Z,6.71
2023-03-02T11:36:44.379Z,7.08
2023-03-02T11:41:47.343Z,7.48
2023-03-02T11:47:00.879Z,7.77
2023-03-02T11:52:05.668Z,7.88
2023-03-02T11:57:19.271Z,7.66
2023-03-02T12:02:22.669Z,7.29
2023-03-02T12:07:28.253Z,7.92
2023-03-02T12:12:44.115Z,7.88
2023-03-02T12:17:47.089Z,7.98
2023-03-02T12:22:51.907Z,7.65
2023-03-02T12:27:56.330Z,7.74
2023-03-02T12:33:20.747Z,7.80
2023-03-02T12:38:33.938Z,7.11
2023-03-02T12:43:37.938Z,7.38
2023-03-02T12:48:45.541Z,7.88
2023-03-02T12:53:50.475Z,7.54
2023-03-02T12:58:54.581Z,7.61
2023-03-02T13:03:57.844Z,7.37
2023-03-02T13:09:02.361Z,7.85
2023-03-02T13:14:20.354Z,8.16
2023-03-02T13:19:24.282Z,8.34
2023-03-02T13:24:34.445Z,8.25
2023-03-02T13:29:37.371Z,8.06
2023-03-02T13:34:49.487Z,8.10
2023-03-02T13:39:58.378Z,8.24
2023-03-02T13:45:10.705Z,8.46
2023-03-02T13:50:19.206Z,7.62
2023-03-02T13:55:24.007Z,7.77
2023-03-02T14:00:31.922Z,7.95
2023-03-02T14:05:34.951Z,8.20
2023-03-02T14:10:41.196Z,8.20
2023-03-02T14:15:48.990Z,8.11
2023-03-02T14:20:52.002Z,7.87
2023-03-02T14:25:57.624Z,7.97
2023-03-02T14:31:00.581Z,8.09
2023-03-02T14:36:06.067Z,8.11
2023-03-02T14:41:14.362Z,7.85
2023-03-02T14:46:17.320Z,8.20
2023-03-02T14:51:25.122Z,8.20
2023-03-02T14:56:30.222Z,8.10
2023-03-02T15:01:33.428Z,8.09
2023-03-02T15:06:40.265Z,8.18
2023-03-02T15:11:44.701Z,8.03
2023-03-02T15:16:47.636Z,7.82
2023-03-02T15:21:52.780Z,7.76
2023-03-02T15:26:57.014Z,7.85
2023-03-02T15:31:59.989Z,7.70
2023-03-02T15:37:03.052Z,7.65
2023-03-02T15:42:07.947Z,7.48
2023-03-02T15:47:13.432Z,7.15
2023-03-02T15:52:16.661Z,7.21
2023-03-02T15:57:21.087Z,7.16
2023-03-02T16:02:24.053Z,6.83
2023-03-02T16:07:27.056Z,6.45
2023-03-02T16:12:31.407Z,6.10
2023-03-02T16:17:34.348Z,5.93
2023-03-02T16:22:37.323Z,5.87
2023-03-02T16:27:47.122Z,5.66
2023-03-02T16:32:50.075Z,5.47
2023-03-02T16:37:53.005Z,5.17
2023-03-02T16:42:57.291Z,5.09
2023-03-02T16:48:00.224Z,4.89
2023-03-02T16:53:03.810Z,4.65
2023-03-02T16:58:08.289Z,4.68
2023-03-02T17:03:11.195Z,4.51
2023-03-02T17:08:16.094Z,4.31
2023-03-02T17:13:20.479Z,3.97
2023-03-02T17:18:23.612Z,3.67
2023-03-02T17:23:27.573Z,3.61
2023-03-02T17:28:32.362Z,3.64
2023-03-02T17:33:35.406Z,3.40
2023-03-02T17:38:38.463Z,3.44
2023-03-02T17:43:43.726Z,3.39
2023-03-02T17:48:48.533Z,3.06
2023-03-02T17:53:53.156Z,3.09
2023-03-02T17:58:59.744Z,3.07
2023-03-02T18:04:02.731Z,2.95
2023-03-02T18:09:05.963Z,2.94
2023-03-02T18:14:10.716Z,2.77
2023-03-02T18:19:13.672Z,2.17
2023-03-02T18:24:16.612Z,2.34
2023-03-02T18:29:22.548Z,2.31
2023-03-02T18:34:25.491Z,2.15
2023-03-02T18:39:28.475Z,2.14
2023-03-02T18:44:32.797Z,1.91
2023-03-02T18:49:35.804Z,1.83
2023-03-02T18:54:39.297Z,1.67
2023-03-02T18:59:43.607Z,1.77
2023-03-02T19:04:46.560Z,1.75
2023-03-02T19:09:49.508Z,1.56
2023-03-02T19:14:55.054Z,1.40
2023-03-02T19:19:58.024Z,1.21
2023-03-02T19:25:00.926Z,1.05
2023-03-02T19:30:06.209Z,1.08
2023-03-02T19:35:14.638Z,1.04
2023-03-02T19:40:19.330Z,1.10
2023-03-02T19:45:27.366Z,0.96
2023-03-02T19:50:31.081Z,1.00
2023-03-02T19:55:34.876Z,0.94
2023-03-02T20:00:39.375Z,1.03
2023-03-02T20:05:42.398Z,0.85
2023-03-02T20:10:49.373Z,0.91
2023-03-02T20:15:53.756Z,0.89
2023-03-02T20:20:56.666Z,1.02
2023-03-02T20:25:59.584Z,0.74
2023-03-02T20:31:08.956Z,0.76
2023-03-02T20:36:13.272Z,0.75
2023-03-02T20:41:17.383Z,0.74
2023-03-02T20:46:25.431Z,0.68
2023-03-02T20:51:29.864Z,0.45
2023-03-02T20:56:32.789Z,0.55
2023-03-02T21:01:37.106Z,0.42
2023-03-02T21:06:40.226Z,0.34
2023-03-02T21:11:43.183Z,0.15
2023-03-02T21:16:47.767Z,0.14
2023-03-02T21:21:50.704Z,0.16
2023-03-02T21:26:55.543Z,0.13
2023-03-02T21:31:59.845Z,0.04
2023-03-02T21:37:02.737Z,-0.04
2023-03-02T21:42:05.833Z,-0.19
2023-03-02T21:47:10.136Z,-0.15
2023-03-02T21:52:13.063Z,-0.18
2023-03-02T21:57:16.226Z,-0.22
2023-03-02T22:02:20.581Z,-0.29
2023-03-02T22:07:23.551Z,-0.30
2023-03-02T22:12:26.460Z,-0.40
2023-03-02T22:17:30.921Z,-0.47
2023-03-02T22:22:33.869Z,-0.52
2023-03-02T22:27:36.750Z,-0.69
2023-03-02T22:32:40.996Z,-0.66
2023-03-02T22:37:43.910Z,-0.69
2023-03-02T22:42:46.818Z,-1.12
2023-03-02T22:47:52.535Z,-0.83
2023-03-02T22:52:57.162Z,-0.95
2023-03-02T22:58:00.051Z,-0.92
2023-03-02T23:03:17.405Z,-1.05
2023-03-02T23:08:23.390Z,-0.99
2023-03-02T23:13:32.197Z,-1.11
2023-03-02T23:18:37.023Z,-1.09
2023-03-02T23:23:40.031Z,-1.26
2023-03-02T23:28:42.920Z,-1.08
2023-03-02T23:33:47.182Z,-0.84
2023-03-02T23:38:50.949Z,-1.00
2023-03-02T23:43:53.906Z,-0.68
2023-03-02T23:48:58.196Z,-0.57
2023-03-02T23:54:03.517Z,-0.50
2023-03-02T23:59:07.483Z,-0.39
